Time;durP1;ratioP1;P1;durP2;ratioP2;P2;SDS_P1;SDS_P2;PMS_P1;PMS_P2;Temp;Humidity;BMP_temperature;BMP_pressure;BME280_temperature;BME280_humidity;BME280_pressure;Samples;Min_cycle;Max_cycle;Signal;HPM_P1;HPM_P2
2022/02/21 00:02:23;;;;;;;15.77;2.58;;;6.90;99.90;;;;;;6187522;23;20050;-91
2022/02/21 00:04:49;;;;;;;24.17;2.65;;;6.90;99.90;;;;;;6161530;23;20008;-92
2022/02/21 00:07:15;;;;;;;7.80;1.50;;;6.80;99.90;;;;;;6187297;23;20001;-91
2022/02/21 00:09:40;;;;;;;14.88;2.30;;;6.80;99.90;;;;;;6161363;23;20009;-90
2022/02/21 00:12:07;;;;;;;18.52;2.70;;;6.80;99.90;;;;;;6187156;23;20031;-91
2022/02/21 00:14:37;;;;;;;12.80;1.85;;;6.80;99.90;;;;;;6187424;23;20001;-91
2022/02/21 00:17:13;;;;;;;15.13;1.90;;;6.80;99.90;;;;;;6161110;23;20009;-92
2022/02/21 00:19:38;;;;;;;16.38;2.92;;;6.80;99.90;;;;;;6189877;23;20538;-89
2022/02/21 00:22:04;;;;;;;14.15;2.42;;;6.80;99.90;;;;;;6172140;23;19997;-92
2022/02/21 00:24:30;;;;;;;16.88;2.40;;;6.70;99.90;;;;;;6161865;23;20028;-91
2022/02/21 00:26:56;;;;;;;15.45;2.42;;;6.70;99.90;;;;;;6161533;23;20005;-90
2022/02/21 00:29:22;;;;;;;13.23;2.10;;;6.70;99.90;;;;;;6161098;23;20008;-90
2022/02/21 00:31:48;;;;;;;12.85;2.05;;;6.70;99.90;;;;;;6161410;23;20438;-90
2022/02/21 00:34:18;;;;;;;16.58;2.33;;;6.70;99.90;;;;;;6161063;23;20056;-91
2022/02/21 00:36:44;;;;;;;14.48;2.22;;;6.70;99.90;;;;;;6162014;23;20001;-91
2022/02/21 00:39:09;;;;;;;25.17;2.63;;;6.70;99.90;;;;;;6160773;23;20031;-91
2022/02/21 00:41:35;;;;;;;23.70;3.78;;;6.60;99.90;;;;;;6137135;23;20498;-91
2022/02/21 00:44:01;;;;;;;23.80;3.83;;;6.70;99.90;;;;;;6136269;23;20012;-91
2022/02/21 00:46:29;;;;;;;19.45;3.15;;;6.70;99.90;;;;;;6161338;23;20462;-90
2022/02/21 00:48:55;;;;;;;19.90;3.03;;;6.60;99.90;;;;;;6160739;23;20005;-90
2022/02/21 00:51:21;;;;;;;13.82;2.40;;;6.60;99.90;;;;;;6160749;23;20084;-91
2022/02/21 00:53:46;;;;;;;17.35;2.97;;;6.60;99.90;;;;;;6161091;23;20036;-91
2022/02/21 00:56:12;;;;;;;21.00;3.05;;;6.50;99.90;;;;;;6136585;23;20060;-88
2022/02/21 00:58:38;;;;;;;23.80;3.30;;;6.50;99.90;;;;;;6161416;23;20453;-89
2022/02/21 01:01:03;;;;;;;26.00;2.65;;;6.50;99.90;;;;;;6160824;23;20005;-90
2022/02/21 01:03:29;;;;;;;19.08;2.83;;;6.40;99.90;;;;;;6161100;23;20008;-89
2022/02/21 01:05:55;;;;;;;14.77;2.75;;;6.40;99.90;;;;;;6160802;23;20052;-90
2022/02/21 01:08:26;;;;;;;19.10;3.40;;;6.40;99.90;;;;;;6160217;23;20009;-91
2022/02/21 01:10:52;;;;;;;13.85;2.80;;;6.40;99.90;;;;;;6161055;23;20011;-91
2022/02/21 01:13:20;;;;;;;16.15;3.17;;;6.30;99.90;;;;;;6161336;23;19997;-90
2022/02/21 01:15:48;;;;;;;13.52;2.78;;;6.40;99.90;;;;;;6162350;23;20002;-89
2022/02/21 01:18:14;;;;;;;13.95;2.80;;;6.30;99.90;;;;;;6160756;23;20040;-90
2022/02/21 01:20:40;;;;;;;22.10;3.05;;;6.30;99.90;;;;;;6187129;23;19997;-90
2022/02/21 01:23:05;;;;;;;23.83;3.25;;;6.30;99.90;;;;;;6160378;23;20032;-89
2022/02/21 01:25:31;;;;;;;16.98;2.95;;;6.30;99.90;;;;;;6160885;23;20124;-89
2022/02/21 01:27:57;;;;;;;19.05;2.65;;;6.20;99.90;;;;;;6160780;23;20388;-90
2022/02/21 01:30:22;;;;;;;19.42;2.97;;;6.20;99.90;;;;;;6135782;23;20021;-88
2022/02/21 01:32:48;;;;;;;16.77;3.13;;;6.20;99.90;;;;;;6136371;23;20012;-88
2022/02/21 01:35:14;;;;;;;17.65;2.75;;;6.20;99.90;;;;;;6160740;23;19997;-89
2022/02/21 01:37:39;;;;;;;17.52;3.10;;;6.20;99.90;;;;;;6161060;23;19997;-88
2022/02/21 01:40:09;;;;;;;19.27;3.22;;;6.10;99.90;;;;;;6111379;23;20100;-89
2022/02/21 01:42:40;;;;;;;12.65;2.78;;;6.10;99.90;;;;;;6137512;23;20092;-89
2022/02/21 01:45:07;;;;;;;14.77;2.45;;;6.10;99.90;;;;;;6136500;23;20036;-88
2022/02/21 01:47:32;;;;;;;14.23;2.55;;;6.10;99.90;;;;;;6186754;23;20016;-88
2022/02/21 01:49:58;;;;;;;15.43;2.17;;;6.10;99.90;;;;;;6161273;23;20013;-88
2022/02/21 01:52:26;;;;;;;15.23;2.65;;;6.00;99.90;;;;;;6138260;23;20331;-88
2022/02/21 01:54:52;;;;;;;12.02;2.45;;;6.00;99.90;;;;;;6162869;23;20005;-88
2022/02/21 01:57:18;;;;;;;17.45;3.05;;;6.00;99.90;;;;;;6188952;23;20071;-88
2022/02/21 01:59:44;;;;;;;15.82;2.78;;;6.00;99.90;;;;;;6163995;23;20001;-88
2022/02/21 02:02:10;;;;;;;17.58;3.17;;;5.90;99.90;;;;;;6195293;23;20028;-88
2022/02/21 02:04:37;;;;;;;14.82;2.60;;;5.90;99.90;;;;;;6149864;23;20008;-88
2022/02/21 02:07:04;;;;;;;16.45;2.70;;;5.90;99.90;;;;;;6207460;23;20005;-88
2022/02/21 02:09:30;;;;;;;16.55;2.35;;;5.90;99.90;;;;;;6199118;23;20075;-88
2022/02/21 02:11:56;;;;;;;15.88;2.47;;;5.90;99.90;;;;;;6170752;23;20006;-89
2022/02/21 02:14:38;;;;;;;18.17;2.45;;;5.90;99.90;;;;;;6146261;23;20028;-86
2022/02/21 02:17:07;;;;;;;11.02;2.55;;;5.80;99.90;;;;;;6195138;23;20001;-88
2022/02/21 02:19:33;;;;;;;14.52;2.58;;;5.90;99.90;;;;;;6188032;23;20084;-87
2022/02/21 02:22:25;;;;;;;14.55;2.78;;;5.90;99.90;;;;;;6161716;23;20005;-87
2022/02/21 02:24:55;;;;;;;17.13;3.08;;;5.90;99.90;;;;;;6155212;23;20009;-87
2022/02/21 02:27:22;;;;;;;15.20;2.50;;;5.80;99.90;;;;;;6161853;23;20009;-88
2022/02/21 02:29:51;;;;;;;24.10;3.38;;;5.80;99.90;;;;;;6161783;23;20434;-88
2022/02/21 02:32:17;;;;;;;14.35;2.42;;;5.80;99.90;;;;;;6161017;23;20109;-87
2022/02/21 02:34:44;;;;;;;17.85;2.50;;;5.80;99.90;;;;;;6159883;23;20037;-87
2022/02/21 02:37:11;;;;;;;17.35;3.75;;;5.80;99.90;;;;;;6136304;23;20009;-88
2022/02/21 02:39:37;;;;;;;16.75;2.33;;;5.70;99.90;;;;;;6137184;23;20025;-88
2022/02/21 02:42:04;;;;;;;14.95;2.70;;;5.70;99.90;;;;;;6137380;23;20009;-87
2022/02/21 02:44:30;;;;;;;8.98;2.38;;;5.60;99.90;;;;;;6162931;23;19997;-87
2022/02/21 02:46:56;;;;;;;13.55;2.20;;;5.60;99.90;;;;;;6164871;23;20001;-88
2022/02/21 02:49:22;;;;;;;15.63;2.45;;;5.60;99.90;;;;;;6138369;23;20020;-88
2022/02/21 02:51:47;;;;;;;9.00;1.98;;;5.60;99.90;;;;;;6164213;23;20016;-88
2022/02/21 02:54:13;;;;;;;12.68;2.38;;;5.60;99.90;;;;;;6163820;23;20006;-88
2022/02/21 02:56:41;;;;;;;11.45;2.20;;;5.60;99.90;;;;;;6163051;23;20001;-87
2022/02/21 02:59:08;;;;;;;10.57;1.80;;;5.60;99.90;;;;;;6161834;23;20001;-88
2022/02/21 03:01:34;;;;;;;14.57;2.47;;;5.50;99.90;;;;;;6161640;23;20001;-87
2022/02/21 03:04:01;;;;;;;19.27;2.80;;;5.50;99.90;;;;;;6161798;23;20387;-88
2022/02/21 03:06:28;;;;;;;12.25;2.50;;;5.50;99.90;;;;;;6161234;23;20012;-87
2022/02/21 03:08:53;;;;;;;16.27;2.05;;;5.50;99.90;;;;;;6161288;23;20059;-87
2022/02/21 03:11:19;;;;;;;17.13;2.17;;;5.50;99.90;;;;;;6161219;23;20009;-88
2022/02/21 03:13:45;;;;;;;17.90;3.50;;;5.60;99.90;;;;;;6160393;23;20001;-87
2022/02/21 03:16:10;;;;;;;13.73;2.47;;;5.50;99.90;;;;;;6187154;23;20040;-88
2022/02/21 03:18:36;;;;;;;15.75;2.53;;;5.50;99.90;;;;;;6136485;23;20013;-87
2022/02/21 03:21:02;;;;;;;19.33;4.03;;;5.50;99.90;;;;;;6161409;23;20001;-88
2022/02/21 03:23:28;;;;;;;16.52;3.58;;;5.50;99.90;;;;;;6161154;23;19997;-88
2022/02/21 03:25:54;;;;;;;14.63;2.33;;;5.50;99.90;;;;;;6187403;23;20442;-88
2022/02/21 03:28:19;;;;;;;16.33;3.28;;;5.50;99.90;;;;;;6187320;23;20008;-88
2022/02/21 03:30:46;;;;;;;14.70;2.17;;;5.50;99.90;;;;;;6160928;23;20012;-88
2022/02/21 03:33:12;;;;;;;12.23;2.20;;;5.40;99.90;;;;;;6136772;23;20343;-88
2022/02/21 03:35:39;;;;;;;13.98;2.80;;;5.40;99.90;;;;;;6187360;23;20490;-88
2022/02/21 03:38:04;;;;;;;12.60;2.05;;;5.40;99.90;;;;;;6137280;23;20313;-88
2022/02/21 03:40:30;;;;;;;16.67;2.80;;;5.30;99.90;;;;;;6186694;23;20092;-88
2022/02/21 03:42:56;;;;;;;20.45;2.50;;;5.20;99.90;;;;;;6161367;23;20016;-88
2022/02/21 03:45:23;;;;;;;17.25;3.58;;;5.20;99.90;;;;;;6161001;23;20005;-88
2022/02/21 03:47:50;;;;;;;16.70;2.22;;;5.20;99.90;;;;;;6141505;23;20012;-88
2022/02/21 03:50:16;;;;;;;12.57;2.97;;;5.20;99.90;;;;;;6161528;23;20012;-88
2022/02/21 03:52:42;;;;;;;17.23;2.85;;;5.10;99.90;;;;;;6161175;23;20013;-88
2022/02/21 03:55:08;;;;;;;15.75;2.55;;;5.20;99.90;;;;;;6161500;23;20064;-87
2022/02/21 03:57:33;;;;;;;12.07;2.25;;;5.20;99.90;;;;;;6136735;23;20005;-88
2022/02/21 03:59:59;;;;;;;18.10;2.72;;;5.10;99.90;;;;;;6136278;23;20031;-88
2022/02/21 04:02:25;;;;;;;15.70;2.58;;;5.20;99.90;;;;;;6135841;23;20392;-88
2022/02/21 04:04:50;;;;;;;15.35;2.90;;;5.20;99.90;;;;;;6161517;23;20029;-88
2022/02/21 04:07:16;;;;;;;19.95;2.38;;;5.10;99.90;;;;;;6161209;23;20036;-88
2022/02/21 04:09:42;;;;;;;10.95;2.00;;;5.20;99.90;;;;;;6160774;23;20013;-88
2022/02/21 04:12:08;;;;;;;13.15;2.38;;;5.20;99.90;;;;;;6136228;23;20032;-88
2022/02/21 04:14:34;;;;;;;12.63;2.50;;;5.10;99.90;;;;;;6186893;23;19997;-88
2022/02/21 04:17:02;;;;;;;17.45;2.92;;;5.20;99.90;;;;;;6186813;23;20008;-88
2022/02/21 04:19:28;;;;;;;14.85;2.30;;;5.20;99.90;;;;;;6186816;23;20001;-88
2022/02/21 04:21:54;;;;;;;19.40;2.92;;;5.20;99.90;;;;;;6160738;23;20001;-87
2022/02/21 04:24:19;;;;;;;24.35;2.60;;;5.20;99.90;;;;;;6160992;23;20001;-88
2022/02/21 04:26:45;;;;;;;12.70;2.50;;;5.20;99.90;;;;;;6136000;23;20514;-88
2022/02/21 04:29:11;;;;;;;16.73;3.50;;;5.20;99.90;;;;;;6136431;23;20152;-88
2022/02/21 04:31:36;;;;;;;17.38;2.75;;;5.20;99.90;;;;;;6136815;23;20019;-88
2022/02/21 04:34:02;;;;;;;19.08;2.92;;;5.20;99.90;;;;;;6138321;23;20032;-88
2022/02/21 04:36:30;;;;;;;20.73;3.25;;;5.20;99.90;;;;;;6162631;23;20004;-88
2022/02/21 04:38:56;;;;;;;13.38;2.28;;;5.20;99.90;;;;;;6187244;23;20009;-88
2022/02/21 04:41:21;;;;;;;18.75;2.58;;;5.20;99.90;;;;;;6161481;23;20052;-88
2022/02/21 04:43:47;;;;;;;16.60;2.88;;;5.20;99.90;;;;;;6136232;23;20419;-88
2022/02/21 04:46:13;;;;;;;18.42;3.30;;;5.20;99.90;;;;;;6136115;23;20009;-87
2022/02/21 04:48:38;;;;;;;14.63;3.22;;;5.20;99.90;;;;;;6136109;23;20408;-88
2022/02/21 04:51:04;;;;;;;8.73;2.33;;;5.20;99.90;;;;;;6136190;23;20088;-88
2022/02/21 04:53:30;;;;;;;13.45;2.40;;;5.20;99.90;;;;;;6186678;23;20013;-88
2022/02/21 04:55:56;;;;;;;12.40;2.30;;;5.20;99.90;;;;;;6186399;23;20060;-88
2022/02/21 04:58:21;;;;;;;14.80;2.40;;;5.20;99.90;;;;;;6136143;23;20500;-88
2022/02/21 05:00:47;;;;;;;11.40;2.08;;;5.20;99.90;;;;;;6135784;23;20088;-88
2022/02/21 05:03:13;;;;;;;12.98;2.22;;;5.10;99.90;;;;;;6136179;23;20009;-88
2022/02/21 05:05:39;;;;;;;17.05;3.10;;;5.10;99.90;;;;;;6160868;23;19997;-88
2022/02/21 05:08:04;;;;;;;14.20;2.60;;;5.10;99.90;;;;;;6136512;23;20404;-88
2022/02/21 05:10:30;;;;;;;12.90;2.17;;;5.10;99.90;;;;;;6160730;23;20013;-89
2022/02/21 05:12:56;;;;;;;16.00;2.72;;;5.20;99.90;;;;;;6186431;23;20420;-87
2022/02/21 05:15:21;;;;;;;14.18;2.55;;;5.10;99.90;;;;;;6135995;23;20523;-88
2022/02/21 05:17:47;;;;;;;22.23;3.80;;;5.10;99.90;;;;;;6161115;23;20005;-87
2022/02/21 05:20:13;;;;;;;12.27;2.30;;;5.20;99.90;;;;;;6111899;23;20079;-88
2022/02/21 05:22:39;;;;;;;13.73;2.17;;;5.10;99.90;;;;;;6160999;23;20052;-88
2022/02/21 05:25:06;;;;;;;14.07;3.15;;;5.10;99.90;;;;;;6160557;23;20017;-87
2022/02/21 05:27:40;;;;;;;14.43;1.98;;;5.10;99.90;;;;;;6136517;23;20432;-89
2022/02/21 05:30:07;;;;;;;16.08;2.40;;;5.20;99.90;;;;;;6194114;23;20024;-88
2022/02/21 05:32:33;;;;;;;15.98;2.50;;;5.20;99.90;;;;;;6197940;23;20001;-88
2022/02/21 05:35:00;;;;;;;15.93;2.42;;;5.20;99.90;;;;;;6155824;23;20009;-88
2022/02/21 05:37:25;;;;;;;12.73;2.05;;;5.10;99.90;;;;;;6173423;23;20001;-87
2022/02/21 05:39:51;;;;;;;15.18;2.40;;;5.20;99.90;;;;;;6118738;23;20013;-87
2022/02/21 05:42:17;;;;;;;12.60;1.98;;;5.20;99.90;;;;;;6148138;23;20017;-87
2022/02/21 05:44:43;;;;;;;11.68;2.33;;;5.20;99.90;;;;;;6167313;23;20001;-87
2022/02/21 05:47:08;;;;;;;20.98;2.72;;;5.30;99.90;;;;;;6136240;23;20012;-87
2022/02/21 05:49:34;;;;;;;16.75;2.72;;;5.30;99.90;;;;;;6187478;23;20081;-87
2022/02/21 05:52:01;;;;;;;14.40;2.60;;;5.30;99.90;;;;;;6162015;23;20454;-88
2022/02/21 05:54:26;;;;;;;17.60;2.28;;;5.30;99.90;;;;;;6189141;23;20001;-87
2022/02/21 05:56:52;;;;;;;10.60;2.95;;;5.30;99.90;;;;;;6161621;23;20048;-88
2022/02/21 05:59:18;;;;;;;17.00;2.45;;;5.30;99.90;;;;;;6136949;23;20336;-88
2022/02/21 06:01:44;;;;;;;11.23;1.98;;;5.30;99.90;;;;;;6188100;23;20005;-89
2022/02/21 06:04:10;;;;;;;13.98;1.85;;;5.30;99.90;;;;;;6162058;23;20008;-88
2022/02/21 06:06:36;;;;;;;17.38;2.42;;;5.30;99.90;;;;;;6187342;23;20002;-88
2022/02/21 06:09:05;;;;;;;13.85;2.50;;;5.20;99.90;;;;;;6161969;23;20013;-88
2022/02/21 06:11:31;;;;;;;15.50;2.50;;;5.30;99.90;;;;;;6161065;23;20013;-87
2022/02/21 06:13:56;;;;;;;14.40;2.40;;;5.20;99.90;;;;;;6161335;23;20066;-87
2022/02/21 06:16:22;;;;;;;13.15;2.47;;;5.20;99.90;;;;;;6159434;23;20048;-87
2022/02/21 06:18:48;;;;;;;13.35;2.13;;;5.20;99.90;;;;;;6186394;23;20079;-87
2022/02/21 06:21:14;;;;;;;17.92;3.55;;;5.20;99.90;;;;;;6135325;23;20009;-87
2022/02/21 06:23:40;;;;;;;15.70;2.95;;;5.20;99.90;;;;;;6187101;23;20024;-87
2022/02/21 06:26:06;;;;;;;14.57;2.65;;;5.20;99.90;;;;;;6160637;23;20412;-88
2022/02/21 06:28:32;;;;;;;13.10;2.35;;;5.20;99.90;;;;;;6160338;23;20013;-88
2022/02/21 06:30:58;;;;;;;15.20;2.67;;;5.20;99.90;;;;;;6135744;23;20009;-88
2022/02/21 06:33:24;;;;;;;20.85;3.03;;;5.20;99.90;;;;;;6160552;23;20395;-88
2022/02/21 06:35:50;;;;;;;17.35;2.72;;;5.20;99.90;;;;;;6111506;23;20001;-88
2022/02/21 06:38:16;;;;;;;15.05;3.25;;;5.20;99.90;;;;;;6162640;23;20008;-87
2022/02/21 06:40:42;;;;;;;18.10;2.85;;;5.20;99.90;;;;;;6189189;23;20017;-88
2022/02/21 06:43:08;;;;;;;19.52;2.42;;;5.20;99.90;;;;;;6164595;23;20011;-88
2022/02/21 06:45:34;;;;;;;15.52;3.05;;;5.20;99.90;;;;;;6115104;23;20001;-88
2022/02/21 06:48:00;;;;;;;15.30;3.30;;;5.20;99.90;;;;;;6189667;23;20012;-87
2022/02/21 06:50:26;;;;;;;15.77;2.97;;;5.20;99.90;;;;;;6163561;23;20136;-89
2022/02/21 06:52:52;;;;;;;17.25;2.65;;;5.30;99.90;;;;;;6161058;23;20054;-89
2022/02/21 06:55:18;;;;;;;17.77;2.80;;;5.30;99.90;;;;;;6189870;23;20001;-88
2022/02/21 06:57:46;;;;;;;14.45;3.20;;;5.30;99.90;;;;;;6168623;23;20015;-87
2022/02/21 07:00:13;;;;;;;16.63;3.15;;;5.30;99.90;;;;;;6190796;23;20522;-88
2022/02/21 07:02:39;;;;;;;14.43;2.72;;;5.30;99.90;;;;;;6163723;23;20008;-88
2022/02/21 07:05:05;;;;;;;16.85;2.60;;;5.30;99.90;;;;;;6167760;23;20005;-88
2022/02/21 07:07:32;;;;;;;17.35;2.70;;;5.30;99.90;;;;;;6141645;23;20001;-88
2022/02/21 07:09:58;;;;;;;13.68;3.17;;;5.40;99.90;;;;;;6141867;23;20009;-89
2022/02/21 07:12:24;;;;;;;13.27;2.15;;;5.40;99.90;;;;;;6113165;23;20079;-89
2022/02/21 07:14:49;;;;;;;18.98;3.13;;;5.40;99.90;;;;;;6166390;23;20017;-89
2022/02/21 07:17:15;;;;;;;16.00;2.58;;;5.40;99.90;;;;;;6189269;23;20080;-88
2022/02/21 07:19:41;;;;;;;14.48;2.65;;;5.40;99.90;;;;;;6112497;23;20013;-90
2022/02/21 07:22:06;;;;;;;15.38;2.30;;;5.40;99.90;;;;;;6187560;23;19998;-88
2022/02/21 07:24:33;;;;;;;18.38;3.38;;;5.40;99.90;;;;;;6139904;23;20080;-89
2022/02/21 07:27:03;;;;;;;14.48;2.65;;;5.50;99.90;;;;;;6137518;23;20005;-89
2022/02/21 07:29:29;;;;;;;14.23;2.13;;;5.50;99.90;;;;;;6187846;23;20005;-89
2022/02/21 07:31:55;;;;;;;19.98;2.38;;;5.50;99.90;;;;;;6137531;23;20013;-89
2022/02/21 07:34:20;;;;;;;20.95;2.70;;;5.50;99.90;;;;;;6162258;23;20008;-89
2022/02/21 07:36:46;;;;;;;14.55;3.55;;;5.50;99.90;;;;;;6160898;23;20032;-89
2022/02/21 07:39:12;;;;;;;12.45;2.75;;;5.60;99.90;;;;;;6112241;23;20020;-88
2022/02/21 07:41:41;;;;;;;14.77;3.13;;;5.60;99.90;;;;;;6187237;23;20099;-89
2022/02/21 07:44:07;;;;;;;21.13;6.20;;;5.60;99.90;;;;;;6160709;23;20001;-88
2022/02/21 07:46:33;;;;;;;15.07;2.60;;;5.60;99.90;;;;;;6136705;23;20059;-87
2022/02/21 07:48:58;;;;;;;24.10;2.90;;;5.60;99.90;;;;;;6137046;23;20328;-88
2022/02/21 07:51:30;;;;;;;14.95;2.90;;;5.60;99.90;;;;;;6161595;23;20013;-87
2022/02/21 07:53:56;;;;;;;12.68;2.53;;;5.70;99.90;;;;;;6136480;23;20009;-88
2022/02/21 07:56:22;;;;;;;14.25;3.22;;;5.70;99.90;;;;;;6187377;23;20015;-88
2022/02/21 07:58:48;;;;;;;12.82;2.38;;;5.70;99.90;;;;;;6186773;23;20001;-88
2022/02/21 08:01:14;;;;;;;19.50;2.42;;;5.70;99.90;;;;;;6160348;23;20008;-88
2022/02/21 08:03:40;;;;;;;19.05;3.30;;;5.70;99.90;;;;;;6160292;23;20076;-87
2022/02/21 08:06:10;;;;;;;13.43;2.42;;;5.70;99.90;;;;;;6161758;23;20008;-87
2022/02/21 08:08:37;;;;;;;13.57;3.75;;;5.70;99.90;;;;;;6137814;23;20004;-87
2022/02/21 08:11:03;;;;;;;10.60;2.45;;;5.70;99.90;;;;;;6160563;23;20024;-85
2022/02/21 08:13:28;;;;;;;18.42;2.78;;;5.80;99.90;;;;;;6136070;23;20005;-86
2022/02/21 08:15:54;;;;;;;12.30;2.78;;;5.80;99.90;;;;;;6160201;23;20029;-85
2022/02/21 08:18:19;;;;;;;17.33;2.85;;;5.80;99.90;;;;;;6109732;23;20013;-85
2022/02/21 08:20:45;;;;;;;19.45;3.00;;;5.90;99.90;;;;;;6135690;23;20021;-87
2022/02/21 08:23:11;;;;;;;19.45;3.10;;;5.90;99.90;;;;;;6135214;23;20006;-88
2022/02/21 08:25:36;;;;;;;11.40;2.65;;;5.90;99.90;;;;;;6135682;23;20420;-87
2022/02/21 08:28:02;;;;;;;12.55;2.25;;;5.90;99.90;;;;;;6159915;23;20051;-88
2022/02/21 08:30:28;;;;;;;12.85;2.00;;;6.00;99.90;;;;;;6160219;23;20008;-86
2022/02/21 08:32:54;;;;;;;17.55;2.67;;;6.00;99.90;;;;;;6110914;23;20084;-87
2022/02/21 08:35:20;;;;;;;15.10;2.20;;;6.00;99.90;;;;;;6185440;23;20363;-89
2022/02/21 08:37:46;;;;;;;12.70;2.47;;;5.90;99.90;;;;;;6159958;23;19997;-87
2022/02/21 08:40:15;;;;;;;17.27;4.25;;;6.00;99.90;;;;;;6160013;23;20167;-86
2022/02/21 08:42:42;;;;;;;11.55;2.30;;;5.90;99.90;;;;;;6160402;23;20001;-86
2022/02/21 08:45:10;;;;;;;12.85;2.40;;;6.00;99.90;;;;;;6161641;23;20008;-87
2022/02/21 08:47:36;;;;;;;16.42;2.47;;;6.00;99.90;;;;;;6137204;23;20024;-87
2022/02/21 08:50:04;;;;;;;16.80;3.25;;;5.90;99.90;;;;;;6187497;23;20439;-91
2022/02/21 08:52:31;;;;;;;13.77;2.55;;;6.00;99.90;;;;;;6161639;23;20035;-90
2022/02/21 08:54:57;;;;;;;13.88;2.45;;;6.00;99.90;;;;;;6145657;23;20419;-89
2022/02/21 08:57:23;;;;;;;13.43;2.63;;;5.90;99.90;;;;;;6134805;23;20001;-88
2022/02/21 08:59:48;;;;;;;16.00;2.92;;;5.90;99.90;;;;;;6207982;23;20031;-89
2022/02/21 09:02:16;;;;;;;14.00;2.30;;;5.90;99.90;;;;;;6127425;23;20001;-88
2022/02/21 09:04:43;;;;;;;16.95;2.50;;;5.90;99.90;;;;;;6154376;23;20060;-89
2022/02/21 09:07:08;;;;;;;8.00;2.08;;;5.80;99.90;;;;;;6204040;23;20043;-90
2022/02/21 09:09:34;;;;;;;18.05;3.38;;;5.70;99.90;;;;;;6115656;23;20016;-90
2022/02/21 09:12:00;;;;;;;13.90;2.35;;;5.70;99.90;;;;;;6162456;23;20009;-89
2022/02/21 09:14:26;;;;;;;12.57;2.35;;;5.60;99.90;;;;;;6160183;23;20005;-87
2022/02/21 09:16:51;;;;;;;9.98;2.10;;;5.60;99.90;;;;;;6136248;23;20001;-87
2022/02/21 09:19:17;;;;;;;12.80;2.95;;;5.60;99.90;;;;;;6135346;23;20013;-87
2022/02/21 09:21:43;;;;;;;16.25;2.55;;;5.50;99.90;;;;;;6186761;23;20128;-88
2022/02/21 09:24:09;;;;;;;10.07;1.92;;;5.50;99.90;;;;;;6135600;23;20435;-87
2022/02/21 09:26:34;;;;;;;10.93;2.20;;;5.40;99.90;;;;;;6136410;23;20080;-88
2022/02/21 09:29:02;;;;;;;12.35;2.50;;;5.30;99.90;;;;;;6161370;23;20012;-88
2022/02/21 09:31:28;;;;;;;11.38;2.30;;;5.30;99.90;;;;;;6160592;23;20064;-92
2022/02/21 09:33:54;;;;;;;17.48;3.00;;;5.20;99.90;;;;;;6136795;23;20044;-89
2022/02/21 09:36:19;;;;;;;18.90;4.30;;;5.20;99.90;;;;;;6136759;23;20005;-89
2022/02/21 09:38:45;;;;;;;10.43;2.50;;;5.10;99.90;;;;;;6135827;23;20025;-90
2022/02/21 09:41:10;;;;;;;13.57;2.40;;;5.00;99.90;;;;;;6160685;23;20125;-90
2022/02/21 09:43:36;;;;;;;8.50;2.65;;;5.00;99.90;;;;;;6135796;23;20005;-89
2022/02/21 09:46:03;;;;;;;10.55;2.65;;;5.00;99.90;;;;;;6160618;23;20015;-89
2022/02/21 09:48:30;;;;;;;13.90;1.85;;;4.90;99.90;;;;;;6160998;23;20005;-92
2022/02/21 09:51:00;;;;;;;11.90;3.40;;;4.90;99.90;;;;;;6187119;23;20009;-90
2022/02/21 09:53:30;;;;;;;9.05;1.63;;;4.90;99.90;;;;;;6160374;23;20003;-93
2022/02/21 09:55:57;;;;;;;12.90;2.07;;;4.90;99.90;;;;;;6136379;23;20038;-91
2022/02/21 09:58:23;;;;;;;12.05;2.20;;;4.90;99.90;;;;;;6135225;23;20013;-92
2022/02/21 10:00:50;;;;;;;11.63;2.20;;;4.80;99.90;;;;;;6160280;23;20002;-92
2022/02/21 10:03:37;;;;;;;15.18;2.58;;;4.80;99.90;;;;;;6186265;23;20408;-90
2022/02/21 10:06:17;;;;;;;11.00;2.50;;;4.80;99.90;;;;;;6159160;23;20434;-91
2022/02/21 10:08:57;;;;;;;14.43;2.40;;;4.80;99.90;;;;;;6160569;23;20096;-92
2022/02/21 10:11:32;;;;;;;12.23;2.80;;;4.80;99.90;;;;;;6160989;23;20056;-92
2022/02/21 10:14:28;;;;;;;9.68;2.33;;;4.80;99.90;;;;;;6139083;23;20010;-91
2022/02/21 10:17:04;;;;;;;28.70;4.35;;;4.80;99.90;;;;;;6132594;23;20474;-94
2022/02/21 10:19:38;;;;;;;18.05;2.95;;;4.80;99.90;;;;;;6161930;23;20092;-93
2022/02/21 10:22:14;;;;;;;14.07;2.88;;;4.80;99.90;;;;;;6162385;23;20001;-93
2022/02/21 10:25:16;;;;;;;16.58;3.70;;;4.90;99.90;;;;;;6162011;23;20001;-92
2022/02/21 10:27:52;;;;;;;18.25;4.00;;;4.90;99.90;;;;;;6138416;23;20032;-95
2022/02/21 10:30:18;;;;;;;18.52;2.60;;;4.90;99.90;;;;;;6162454;23;20005;-91
2022/02/21 10:32:44;;;;;;;22.10;3.10;;;4.90;99.90;;;;;;6162464;23;20009;-88
2022/02/21 10:35:16;;;;;;;19.30;2.50;;;4.90;99.90;;;;;;6161468;23;19997;-92
2022/02/21 10:37:47;;;;;;;16.17;2.80;;;4.80;99.90;;;;;;6187342;23;20061;-93
2022/02/21 10:40:17;;;;;;;19.13;2.75;;;4.80;99.90;;;;;;6157900;23;20024;-95
2022/02/21 10:43:09;;;;;;;21.42;3.30;;;4.90;99.90;;;;;;6159885;23;20008;-94
2022/02/21 10:45:35;;;;;;;21.55;3.20;;;4.90;99.90;;;;;;6090998;23;20001;-94
2022/02/21 10:48:20;;;;;;;18.02;3.70;;;4.80;99.90;;;;;;6157170;23;20006;-93
2022/02/21 10:51:03;;;;;;;15.57;2.45;;;4.80;99.90;;;;;;6157187;23;20005;-91
2022/02/21 10:53:40;;;;;;;13.98;2.40;;;4.80;99.90;;;;;;6158337;23;20021;-93
2022/02/21 10:56:11;;;;;;;11.20;2.60;;;4.80;99.90;;;;;;6158046;23;20354;-91
2022/02/21 10:58:40;;;;;;;;;;;4.80;99.90;;;;;;6157688;23;20005;-93
2022/02/21 11:01:08;;;;;;;18.00;3.97;;;4.70;99.90;;;;;;6156978;23;19923;-93
2022/02/21 11:03:34;;;;;;;10.43;2.30;;;4.70;99.90;;;;;;6158230;23;20033;-92
2022/02/21 11:06:01;;;;;;;14.63;2.63;;;4.70;99.90;;;;;;6156925;23;20002;-92
2022/02/21 11:08:29;;;;;;;21.33;3.30;;;4.80;99.90;;;;;;6157127;23;20450;-92
2022/02/21 11:11:15;;;;;;;;;;;;;;;;;;;;;
2022/02/21 11:13:44;;;;;;;15.90;2.75;;;4.80;99.90;;;;;;6157884;23;20065;-91
2022/02/21 11:16:11;;;;;;;13.15;2.78;;;4.80;99.90;;;;;;6157799;23;20001;-90
2022/02/21 11:18:38;;;;;;;10.63;1.80;;;4.80;99.90;;;;;;6156808;23;20455;-91
2022/02/21 11:21:04;;;;;;;11.55;2.60;;;4.80;99.90;;;;;;6157810;23;20001;-92
2022/02/21 11:23:34;;;;;;;12.93;2.83;;;4.90;99.90;;;;;;6158813;23;20008;-92
2022/02/21 11:26:17;;;;;;;13.45;2.35;;;4.90;99.90;;;;;;6156705;23;20009;-92
2022/02/21 11:29:18;;;;;;;17.98;2.80;;;4.90;99.90;;;;;;6157844;23;20009;-92
2022/02/21 11:31:50;;;;;;;15.93;3.22;;;4.90;99.90;;;;;;6039038;23;20011;-91
2022/02/21 11:34:18;;;;;;;24.60;3.60;;;4.90;99.90;;;;;;6136908;23;20056;-92
2022/02/21 11:36:47;;;;;;;18.48;3.38;;;5.00;99.90;;;;;;6156685;23;19997;-92
2022/02/21 11:39:31;;;;;;;17.90;3.10;;;5.00;99.90;;;;;;6157499;23;20049;-92
2022/02/21 11:42:07;;;;;;;21.45;4.45;;;5.00;99.90;;;;;;6158854;23;20025;-91
2022/02/21 11:44:50;;;;;;;25.05;3.03;;;5.10;99.90;;;;;;6157129;23;20010;-94
2022/02/21 11:47:34;;;;;;;19.48;3.78;;;5.10;99.90;;;;;;6156527;23;20005;-93
2022/02/21 11:50:06;;;;;;;19.95;3.50;;;5.20;99.90;;;;;;6157642;23;20006;-93
2022/02/21 11:52:37;;;;;;;28.92;3.42;;;5.20;99.90;;;;;;6156733;23;20020;-93
2022/02/21 11:55:41;;;;;;;28.23;4.90;;;5.30;99.90;;;;;;6158727;23;20325;-93
2022/02/21 11:58:22;;;;;;;30.75;4.60;;;5.40;99.90;;;;;;6156530;23;20005;-92
2022/02/21 12:00:53;;;;;;;26.10;4.78;;;5.50;99.90;;;;;;6155484;23;20010;-95
2022/02/21 12:03:26;;;;;;;39.83;6.80;;;5.50;99.90;;;;;;6156090;23;20005;-93
2022/02/21 12:06:20;;;;;;;50.92;5.88;;;5.60;99.90;;;;;;6156221;23;20086;-92
2022/02/21 12:08:46;;;;;;;35.40;5.75;;;5.70;99.90;;;;;;6143759;23;20008;-92
2022/02/21 12:11:17;;;;;;;46.20;7.50;;;5.80;99.90;;;;;;6157290;23;20005;-92
2022/02/21 12:13:51;;;;;;;44.20;7.63;;;5.90;99.90;;;;;;6156510;23;20006;-92
2022/02/21 12:16:25;;;;;;;33.20;5.05;;;5.90;99.90;;;;;;6156492;23;20001;-92
2022/02/21 12:19:04;;;;;;;43.67;6.85;;;6.00;99.90;;;;;;6169554;23;20006;-93
2022/02/21 12:21:30;;;;;;;40.97;6.50;;;6.10;99.90;;;;;;6154662;23;20032;-93
2022/02/21 12:23:58;;;;;;;39.60;5.93;;;6.20;99.90;;;;;;6172987;23;20085;-93
2022/02/21 12:26:28;;;;;;;64.63;9.18;;;6.20;99.90;;;;;;6172041;23;19981;-93
2022/02/21 12:29:24;;;;;;;44.90;9.13;;;6.30;99.90;;;;;;6174971;23;20005;-92
2022/02/21 12:32:02;;;;;;;52.42;9.98;;;6.30;99.90;;;;;;6161450;23;20005;-91
2022/02/21 12:34:34;;;;;;;42.70;6.47;;;6.40;99.90;;;;;;6156961;23;19997;-93
2022/02/21 12:37:06;;;;;;;55.00;8.50;;;6.50;99.90;;;;;;6157257;23;20005;-96
2022/02/21 12:39:37;;;;;;;39.30;7.35;;;6.50;99.90;;;;;;6155997;23;20010;-91
2022/02/21 12:42:06;;;;;;;52.33;6.35;;;6.60;99.90;;;;;;6157876;23;20001;-93
2022/02/21 12:44:34;;;;;;;41.42;5.53;;;6.60;99.90;;;;;;6155304;23;20044;-92
2022/02/21 12:47:04;;;;;;;53.20;7.55;;;6.70;99.90;;;;;;6156641;23;20028;-93
2022/02/21 12:49:34;;;;;;;39.22;5.68;;;6.70;99.90;;;;;;6154500;23;20446;-92
2022/02/21 12:52:09;;;;;;;39.45;5.50;;;6.80;99.90;;;;;;6153815;23;20060;-93
2022/02/21 12:54:53;;;;;;;41.60;5.78;;;6.80;99.90;;;;;;6153630;23;20001;-93